Terminal Aerodrome Forecast
Issued by NWS

Home | Current Version | Previous Version | Text Only | Print | Product List | Glossary On
Versions: 1 2 3 4 5 6 7 8 9 10 11 12 13 14 15 16 17 18 19 20 21 22
167
FTUS41 KBTV 120538
TAFMSS
TAF
KMSS 120538Z 1206/1306 21007KT P6SM SKC
     FM121200 00000KT P6SM BKN050
     FM121500 19005KT P6SM BKN035
     FM121800 19006KT 3SM -SHSN BKN025
     FM122100 22011KT 1SM -SHSN OVC015
     FM130500 31013G23KT P6SM VCSH OVC045=

USA.gov is the U.S. government's official web portal to all federal, state and local government web resources and services.